sensor_id;sensor_type;location;lat;lon;timestamp;P1;durP1;ratioP1;P2;durP2;ratioP2
20734;SDS011;10528;52.124;5.196;2022-09-29T00:01:02;7.45;;;4.10;;
20734;SDS011;10528;52.124;5.196;2022-09-29T00:03:29;4.70;;;3.85;;
20734;SDS011;10528;52.124;5.196;2022-09-29T00:05:56;4.72;;;3.78;;
20734;SDS011;10528;52.124;5.196;2022-09-29T00:08:24;4.97;;;3.67;;
20734;SDS011;10528;52.124;5.196;2022-09-29T00:10:53;7.45;;;4.22;;
20734;SDS011;10528;52.124;5.196;2022-09-29T00:13:21;5.53;;;4.22;;
20734;SDS011;10528;52.124;5.196;2022-09-29T00:15:58;8.20;;;3.95;;
20734;SDS011;10528;52.124;5.196;2022-09-29T00:18:28;7.15;;;4.22;;
20734;SDS011;10528;52.124;5.196;2022-09-29T00:20:57;5.53;;;3.80;;
20734;SDS011;10528;52.124;5.196;2022-09-29T00:23:34;5.50;;;4.30;;
20734;SDS011;10528;52.124;5.196;2022-09-29T00:26:13;6.40;;;3.75;;
20734;SDS011;10528;52.124;5.196;2022-09-29T00:28:51;4.38;;;3.45;;
20734;SDS011;10528;52.124;5.196;2022-09-29T00:31:26;6.15;;;3.28;;
20734;SDS011;10528;52.124;5.196;2022-09-29T00:33:56;4.43;;;3.80;;
20734;SDS011;10528;52.124;5.196;2022-09-29T00:36:23;5.97;;;4.25;;
20734;SDS011;10528;52.124;5.196;2022-09-29T00:38:54;4.50;;;3.88;;
20734;SDS011;10528;52.124;5.196;2022-09-29T00:41:29;4.57;;;3.78;;
20734;SDS011;10528;52.124;5.196;2022-09-29T00:44:04;6.10;;;3.67;;
20734;SDS011;10528;52.124;5.196;2022-09-29T00:46:37;4.63;;;4.10;;
20734;SDS011;10528;52.124;5.196;2022-09-29T00:49:37;4.90;;;3.75;;
20734;SDS011;10528;52.124;5.196;2022-09-29T00:52:20;4.50;;;3.72;;
20734;SDS011;10528;52.124;5.196;2022-09-29T00:54:57;4.95;;;4.10;;
20734;SDS011;10528;52.124;5.196;2022-09-29T00:57:36;6.72;;;4.90;;
20734;SDS011;10528;52.124;5.196;2022-09-29T01:00:11;4.80;;;3.78;;
20734;SDS011;10528;52.124;5.196;2022-09-29T01:02:58;5.13;;;4.05;;
20734;SDS011;10528;52.124;5.196;2022-09-29T01:05:42;6.47;;;4.00;;
20734;SDS011;10528;52.124;5.196;2022-09-29T01:08:25;4.97;;;3.60;;
20734;SDS011;10528;52.124;5.196;2022-09-29T01:11:04;8.77;;;4.22;;
20734;SDS011;10528;52.124;5.196;2022-09-29T01:13:32;5.20;;;3.95;;
20734;SDS011;10528;52.124;5.196;2022-09-29T01:16:00;5.28;;;3.88;;
20734;SDS011;10528;52.124;5.196;2022-09-29T01:18:27;5.40;;;4.05;;
20734;SDS011;10528;52.124;5.196;2022-09-29T01:33:35;5.10;;;3.92;;
20734;SDS011;10528;52.124;5.196;2022-09-29T01:42:11;6.55;;;4.32;;
20734;SDS011;10528;52.124;5.196;2022-09-29T01:44:53;5.25;;;3.70;;
20734;SDS011;10528;52.124;5.196;2022-09-29T01:47:29;6.53;;;4.10;;
20734;SDS011;10528;52.124;5.196;2022-09-29T01:50:09;4.13;;;3.60;;
20734;SDS011;10528;52.124;5.196;2022-09-29T01:52:54;6.35;;;4.15;;
20734;SDS011;10528;52.124;5.196;2022-09-29T01:55:27;5.18;;;4.25;;
20734;SDS011;10528;52.124;5.196;2022-09-29T01:58:09;6.22;;;4.82;;
20734;SDS011;10528;52.124;5.196;2022-09-29T02:00:47;6.00;;;3.97;;
20734;SDS011;10528;52.124;5.196;2022-09-29T02:03:30;5.50;;;3.80;;
20734;SDS011;10528;52.124;5.196;2022-09-29T02:06:21;5.68;;;4.35;;
20734;SDS011;10528;52.124;5.196;2022-09-29T02:09:09;6.07;;;4.32;;
20734;SDS011;10528;52.124;5.196;2022-09-29T02:11:45;10.38;;;5.20;;
20734;SDS011;10528;52.124;5.196;2022-09-29T02:14:22;5.00;;;3.67;;
20734;SDS011;10528;52.124;5.196;2022-09-29T02:16:57;5.03;;;3.90;;
20734;SDS011;10528;52.124;5.196;2022-09-29T02:19:36;5.43;;;3.95;;
20734;SDS011;10528;52.124;5.196;2022-09-29T02:22:08;4.30;;;3.80;;
20734;SDS011;10528;52.124;5.196;2022-09-29T02:24:35;5.25;;;3.50;;
20734;SDS011;10528;52.124;5.196;2022-09-29T02:27:02;5.18;;;4.15;;
20734;SDS011;10528;52.124;5.196;2022-09-29T02:29:32;5.18;;;4.13;;
20734;SDS011;10528;52.124;5.196;2022-09-29T02:32:01;4.78;;;4.00;;
20734;SDS011;10528;52.124;5.196;2022-09-29T02:34:36;5.50;;;4.13;;
20734;SDS011;10528;52.124;5.196;2022-09-29T02:40:27;5.97;;;4.55;;
20734;SDS011;10528;52.124;5.196;2022-09-29T02:43:06;7.38;;;4.43;;
20734;SDS011;10528;52.124;5.196;2022-09-29T02:48:54;5.78;;;3.78;;
20734;SDS011;10528;52.124;5.196;2022-09-29T02:51:54;4.70;;;3.60;;
20734;SDS011;10528;52.124;5.196;2022-09-29T02:57:30;4.80;;;3.65;;
20734;SDS011;10528;52.124;5.196;2022-09-29T03:00:36;6.63;;;4.28;;
20734;SDS011;10528;52.124;5.196;2022-09-29T03:03:04;5.18;;;4.03;;
20734;SDS011;10528;52.124;5.196;2022-09-29T03:05:31;6.35;;;4.47;;
20734;SDS011;10528;52.124;5.196;2022-09-29T03:07:58;4.88;;;4.18;;
20734;SDS011;10528;52.124;5.196;2022-09-29T03:10:25;5.78;;;4.20;;
20734;SDS011;10528;52.124;5.196;2022-09-29T03:12:55;6.57;;;4.43;;
20734;SDS011;10528;52.124;5.196;2022-09-29T03:15:22;8.10;;;4.32;;
20734;SDS011;10528;52.124;5.196;2022-09-29T03:17:49;6.32;;;4.60;;
20734;SDS011;10528;52.124;5.196;2022-09-29T03:20:21;6.85;;;4.70;;
20734;SDS011;10528;52.124;5.196;2022-09-29T03:22:48;6.57;;;4.78;;
20734;SDS011;10528;52.124;5.196;2022-09-29T03:25:16;6.30;;;4.30;;
20734;SDS011;10528;52.124;5.196;2022-09-29T03:27:42;6.35;;;4.22;;
20734;SDS011;10528;52.124;5.196;2022-09-29T03:30:10;6.47;;;4.40;;
20734;SDS011;10528;52.124;5.196;2022-09-29T03:32:38;7.45;;;4.30;;
20734;SDS011;10528;52.124;5.196;2022-09-29T03:35:05;6.28;;;4.20;;
20734;SDS011;10528;52.124;5.196;2022-09-29T03:37:32;6.10;;;4.38;;
20734;SDS011;10528;52.124;5.196;2022-09-29T03:39:59;5.65;;;4.13;;
20734;SDS011;10528;52.124;5.196;2022-09-29T03:42:27;6.82;;;4.40;;
20734;SDS011;10528;52.124;5.196;2022-09-29T03:44:54;5.30;;;3.95;;
20734;SDS011;10528;52.124;5.196;2022-09-29T03:47:21;6.38;;;4.38;;
20734;SDS011;10528;52.124;5.196;2022-09-29T03:49:47;4.65;;;4.05;;
20734;SDS011;10528;52.124;5.196;2022-09-29T03:52:14;6.50;;;4.30;;
20734;SDS011;10528;52.124;5.196;2022-09-29T03:54:41;5.05;;;4.10;;
20734;SDS011;10528;52.124;5.196;2022-09-29T03:57:08;5.18;;;4.40;;
20734;SDS011;10528;52.124;5.196;2022-09-29T03:59:35;6.07;;;4.75;;
20734;SDS011;10528;52.124;5.196;2022-09-29T04:02:02;7.53;;;4.45;;
20734;SDS011;10528;52.124;5.196;2022-09-29T04:04:29;6.32;;;4.55;;
20734;SDS011;10528;52.124;5.196;2022-09-29T04:06:56;6.90;;;4.47;;
20734;SDS011;10528;52.124;5.196;2022-09-29T04:09:23;5.82;;;4.60;;
20734;SDS011;10528;52.124;5.196;2022-09-29T04:11:49;4.93;;;4.05;;
20734;SDS011;10528;52.124;5.196;2022-09-29T04:14:16;5.35;;;4.07;;
20734;SDS011;10528;52.124;5.196;2022-09-29T04:16:43;5.60;;;4.65;;
20734;SDS011;10528;52.124;5.196;2022-09-29T04:19:10;6.43;;;4.30;;
20734;SDS011;10528;52.124;5.196;2022-09-29T04:21:37;6.93;;;4.40;;
20734;SDS011;10528;52.124;5.196;2022-09-29T04:24:03;6.90;;;4.90;;
20734;SDS011;10528;52.124;5.196;2022-09-29T04:26:30;5.97;;;4.30;;
20734;SDS011;10528;52.124;5.196;2022-09-29T04:28:57;6.25;;;4.57;;
20734;SDS011;10528;52.124;5.196;2022-09-29T04:31:24;5.60;;;4.55;;
20734;SDS011;10528;52.124;5.196;2022-09-29T04:33:51;10.35;;;5.10;;
20734;SDS011;10528;52.124;5.196;2022-09-29T04:36:18;7.03;;;4.40;;
20734;SDS011;10528;52.124;5.196;2022-09-29T04:38:45;7.35;;;4.75;;
20734;SDS011;10528;52.124;5.196;2022-09-29T04:41:11;6.40;;;4.43;;
20734;SDS011;10528;52.124;5.196;2022-09-29T04:43:38;5.35;;;4.80;;
20734;SDS011;10528;52.124;5.196;2022-09-29T04:46:05;6.32;;;4.45;;
20734;SDS011;10528;52.124;5.196;2022-09-29T04:48:34;5.18;;;4.60;;
20734;SDS011;10528;52.124;5.196;2022-09-29T04:51:02;6.95;;;4.75;;
20734;SDS011;10528;52.124;5.196;2022-09-29T04:53:30;7.10;;;4.90;;
20734;SDS011;10528;52.124;5.196;2022-09-29T04:55:57;6.20;;;5.13;;
20734;SDS011;10528;52.124;5.196;2022-09-29T04:58:24;6.35;;;4.95;;
20734;SDS011;10528;52.124;5.196;2022-09-29T05:00:51;6.07;;;4.90;;
20734;SDS011;10528;52.124;5.196;2022-09-29T05:03:18;6.45;;;4.95;;
20734;SDS011;10528;52.124;5.196;2022-09-29T05:05:44;6.00;;;5.05;;
20734;SDS011;10528;52.124;5.196;2022-09-29T05:08:11;5.63;;;4.90;;
20734;SDS011;10528;52.124;5.196;2022-09-29T05:10:38;8.07;;;5.10;;
20734;SDS011;10528;52.124;5.196;2022-09-29T05:13:05;7.30;;;4.85;;
20734;SDS011;10528;52.124;5.196;2022-09-29T05:15:31;7.90;;;5.13;;
20734;SDS011;10528;52.124;5.196;2022-09-29T05:18:01;6.15;;;5.13;;
20734;SDS011;10528;52.124;5.196;2022-09-29T05:20:29;6.90;;;5.13;;
20734;SDS011;10528;52.124;5.196;2022-09-29T05:23:07;6.53;;;5.13;;
20734;SDS011;10528;52.124;5.196;2022-09-29T05:25:35;6.63;;;5.05;;
20734;SDS011;10528;52.124;5.196;2022-09-29T05:28:03;7.65;;;5.78;;
20734;SDS011;10528;52.124;5.196;2022-09-29T05:30:30;7.82;;;5.40;;
20734;SDS011;10528;52.124;5.196;2022-09-29T05:32:57;8.40;;;5.35;;
20734;SDS011;10528;52.124;5.196;2022-09-29T05:35:24;10.82;;;6.97;;
20734;SDS011;10528;52.124;5.196;2022-09-29T05:37:51;9.68;;;6.40;;
20734;SDS011;10528;52.124;5.196;2022-09-29T05:40:18;7.32;;;5.30;;
20734;SDS011;10528;52.124;5.196;2022-09-29T05:42:49;6.85;;;5.40;;
20734;SDS011;10528;52.124;5.196;2022-09-29T05:45:17;6.57;;;4.90;;
20734;SDS011;10528;52.124;5.196;2022-09-29T05:47:44;7.80;;;5.63;;
20734;SDS011;10528;52.124;5.196;2022-09-29T05:50:11;8.18;;;5.47;;
20734;SDS011;10528;52.124;5.196;2022-09-29T05:52:39;17.63;;;6.63;;
20734;SDS011;10528;52.124;5.196;2022-09-29T05:55:06;9.98;;;6.28;;
20734;SDS011;10528;52.124;5.196;2022-09-29T05:57:35;10.65;;;6.53;;
20734;SDS011;10528;52.124;5.196;2022-09-29T06:00:02;24.75;;;6.88;;
20734;SDS011;10528;52.124;5.196;2022-09-29T06:02:36;15.70;;;6.03;;
20734;SDS011;10528;52.124;5.196;2022-09-29T06:05:03;9.80;;;5.82;;
20734;SDS011;10528;52.124;5.196;2022-09-29T06:07:31;8.57;;;6.07;;
20734;SDS011;10528;52.124;5.196;2022-09-29T06:09:58;9.07;;;6.70;;
20734;SDS011;10528;52.124;5.196;2022-09-29T06:12:25;9.73;;;6.00;;
20734;SDS011;10528;52.124;5.196;2022-09-29T06:14:51;8.60;;;6.00;;
20734;SDS011;10528;52.124;5.196;2022-09-29T06:17:18;12.48;;;7.18;;
20734;SDS011;10528;52.124;5.196;2022-09-29T06:19:45;9.02;;;6.75;;
20734;SDS011;10528;52.124;5.196;2022-09-29T06:22:12;8.93;;;6.32;;
20734;SDS011;10528;52.124;5.196;2022-09-29T06:24:39;9.93;;;6.50;;
20734;SDS011;10528;52.124;5.196;2022-09-29T06:27:05;10.07;;;6.53;;
20734;SDS011;10528;52.124;5.196;2022-09-29T06:29:32;8.75;;;6.88;;
20734;SDS011;10528;52.124;5.196;2022-09-29T06:31:59;10.55;;;6.22;;
20734;SDS011;10528;52.124;5.196;2022-09-29T06:34:26;9.68;;;6.47;;
20734;SDS011;10528;52.124;5.196;2022-09-29T06:36:53;9.57;;;6.70;;
20734;SDS011;10528;52.124;5.196;2022-09-29T06:39:38;10.18;;;6.28;;
20734;SDS011;10528;52.124;5.196;2022-09-29T06:42:05;9.82;;;5.90;;
20734;SDS011;10528;52.124;5.196;2022-09-29T06:44:32;10.10;;;6.25;;
20734;SDS011;10528;52.124;5.196;2022-09-29T06:46:59;12.15;;;6.20;;
20734;SDS011;10528;52.124;5.196;2022-09-29T06:49:26;9.45;;;6.55;;
20734;SDS011;10528;52.124;5.196;2022-09-29T06:51:53;10.05;;;6.40;;
20734;SDS011;10528;52.124;5.196;2022-09-29T06:54:20;13.60;;;6.93;;
20734;SDS011;10528;52.124;5.196;2022-09-29T06:56:50;10.15;;;6.28;;
20734;SDS011;10528;52.124;5.196;2022-09-29T06:59:19;8.98;;;6.65;;
20734;SDS011;10528;52.124;5.196;2022-09-29T07:01:46;8.88;;;6.70;;
20734;SDS011;10528;52.124;5.196;2022-09-29T07:04:15;8.32;;;6.75;;
20734;SDS011;10528;52.124;5.196;2022-09-29T07:06:43;9.25;;;6.72;;
20734;SDS011;10528;52.124;5.196;2022-09-29T07:09:11;10.55;;;7.07;;
20734;SDS011;10528;52.124;5.196;2022-09-29T07:11:42;9.43;;;6.97;;
20734;SDS011;10528;52.124;5.196;2022-09-29T07:14:15;10.00;;;7.10;;
20734;SDS011;10528;52.124;5.196;2022-09-29T07:16:45;9.63;;;7.13;;
20734;SDS011;10528;52.124;5.196;2022-09-29T07:19:13;11.40;;;7.22;;
20734;SDS011;10528;52.124;5.196;2022-09-29T07:21:42;10.88;;;7.97;;
20734;SDS011;10528;52.124;5.196;2022-09-29T07:24:09;12.13;;;7.70;;
20734;SDS011;10528;52.124;5.196;2022-09-29T07:26:36;9.25;;;7.15;;
20734;SDS011;10528;52.124;5.196;2022-09-29T07:29:03;9.70;;;7.53;;
20734;SDS011;10528;52.124;5.196;2022-09-29T07:31:30;9.60;;;7.93;;
20734;SDS011;10528;52.124;5.196;2022-09-29T07:34:10;9.52;;;7.95;;
20734;SDS011;10528;52.124;5.196;2022-09-29T07:36:37;10.60;;;8.95;;
20734;SDS011;10528;52.124;5.196;2022-09-29T07:39:04;11.63;;;8.70;;
20734;SDS011;10528;52.124;5.196;2022-09-29T07:41:31;10.05;;;8.35;;
20734;SDS011;10528;52.124;5.196;2022-09-29T07:43:58;14.05;;;9.40;;
20734;SDS011;10528;52.124;5.196;2022-09-29T07:46:25;12.60;;;9.98;;
20734;SDS011;10528;52.124;5.196;2022-09-29T07:48:52;14.88;;;11.82;;
20734;SDS011;10528;52.124;5.196;2022-09-29T07:51:19;15.75;;;13.07;;
20734;SDS011;10528;52.124;5.196;2022-09-29T07:53:46;18.98;;;14.43;;
20734;SDS011;10528;52.124;5.196;2022-09-29T07:56:14;20.27;;;15.65;;
20734;SDS011;10528;52.124;5.196;2022-09-29T07:58:48;22.50;;;16.27;;
20734;SDS011;10528;52.124;5.196;2022-09-29T08:01:16;26.90;;;18.58;;
20734;SDS011;10528;52.124;5.196;2022-09-29T08:03:52;25.23;;;18.45;;
20734;SDS011;10528;52.124;5.196;2022-09-29T08:06:21;26.25;;;18.23;;
20734;SDS011;10528;52.124;5.196;2022-09-29T08:08:51;27.27;;;18.75;;
20734;SDS011;10528;52.124;5.196;2022-09-29T08:11:30;25.50;;;18.85;;
20734;SDS011;10528;52.124;5.196;2022-09-29T08:14:01;28.52;;;20.25;;
20734;SDS011;10528;52.124;5.196;2022-09-29T08:16:28;32.70;;;20.58;;
20734;SDS011;10528;52.124;5.196;2022-09-29T08:18:56;27.63;;;20.90;;
20734;SDS011;10528;52.124;5.196;2022-09-29T08:21:24;29.50;;;22.08;;
20734;SDS011;10528;52.124;5.196;2022-09-29T08:23:52;30.75;;;22.02;;
20734;SDS011;10528;52.124;5.196;2022-09-29T08:26:19;32.50;;;22.63;;
20734;SDS011;10528;52.124;5.196;2022-09-29T08:29:06;35.08;;;22.77;;
20734;SDS011;10528;52.124;5.196;2022-09-29T08:31:34;32.13;;;22.90;;
20734;SDS011;10528;52.124;5.196;2022-09-29T08:34:03;31.58;;;23.30;;
20734;SDS011;10528;52.124;5.196;2022-09-29T08:36:31;31.98;;;22.90;;
20734;SDS011;10528;52.124;5.196;2022-09-29T08:38:58;34.65;;;24.63;;
20734;SDS011;10528;52.124;5.196;2022-09-29T08:44:18;34.35;;;23.20;;
20734;SDS011;10528;52.124;5.196;2022-09-29T08:49:47;34.38;;;23.85;;
20734;SDS011;10528;52.124;5.196;2022-09-29T08:52:26;34.75;;;25.08;;
20734;SDS011;10528;52.124;5.196;2022-09-29T08:57:47;36.25;;;26.75;;
20734;SDS011;10528;52.124;5.196;2022-09-29T09:00:23;37.05;;;26.83;;
20734;SDS011;10528;52.124;5.196;2022-09-29T09:06:25;37.85;;;25.50;;
20734;SDS011;10528;52.124;5.196;2022-09-29T09:09:06;38.22;;;25.90;;
20734;SDS011;10528;52.124;5.196;2022-09-29T09:12:07;37.50;;;27.25;;
20734;SDS011;10528;52.124;5.196;2022-09-29T09:21:09;41.33;;;27.23;;
20734;SDS011;10528;52.124;5.196;2022-09-29T09:26:42;37.25;;;26.83;;
20734;SDS011;10528;52.124;5.196;2022-09-29T09:29:28;36.80;;;26.92;;
20734;SDS011;10528;52.124;5.196;2022-09-29T09:32:20;33.72;;;24.80;;
20734;SDS011;10528;52.124;5.196;2022-09-29T09:37:50;36.25;;;26.77;;
20734;SDS011;10528;52.124;5.196;2022-09-29T09:40:24;33.08;;;24.83;;
20734;SDS011;10528;52.124;5.196;2022-09-29T09:45:55;31.58;;;22.13;;
20734;SDS011;10528;52.124;5.196;2022-09-29T09:48:43;30.95;;;21.02;;
20734;SDS011;10528;52.124;5.196;2022-09-29T09:51:48;31.42;;;20.73;;
20734;SDS011;10528;52.124;5.196;2022-09-29T09:54:29;30.38;;;20.40;;
20734;SDS011;10528;52.124;5.196;2022-09-29T10:02:45;23.40;;;16.98;;
20734;SDS011;10528;52.124;5.196;2022-09-29T10:05:17;20.70;;;15.15;;
20734;SDS011;10528;52.124;5.196;2022-09-29T10:08:02;19.98;;;14.80;;
20734;SDS011;10528;52.124;5.196;2022-09-29T10:10:32;21.67;;;15.48;;
20734;SDS011;10528;52.124;5.196;2022-09-29T10:23:55;19.15;;;12.88;;
20734;SDS011;10528;52.124;5.196;2022-09-29T10:26:26;16.95;;;12.82;;
20734;SDS011;10528;52.124;5.196;2022-09-29T10:29:01;17.85;;;12.02;;
20734;SDS011;10528;52.124;5.196;2022-09-29T10:37:45;14.48;;;10.82;;
20734;SDS011;10528;52.124;5.196;2022-09-29T10:40:23;13.98;;;10.25;;
20734;SDS011;10528;52.124;5.196;2022-09-29T10:42:50;13.52;;;9.18;;
20734;SDS011;10528;52.124;5.196;2022-09-29T10:45:22;11.00;;;8.20;;
20734;SDS011;10528;52.124;5.196;2022-09-29T10:50:27;13.80;;;10.75;;
20734;SDS011;10528;52.124;5.196;2022-09-29T10:53:16;11.60;;;8.52;;
20734;SDS011;10528;52.124;5.196;2022-09-29T10:55:50;10.57;;;7.88;;
20734;SDS011;10528;52.124;5.196;2022-09-29T10:58:27;10.63;;;7.60;;
20734;SDS011;10528;52.124;5.196;2022-09-29T11:01:20;9.15;;;6.60;;
20734;SDS011;10528;52.124;5.196;2022-09-29T11:03:51;8.65;;;6.60;;
20734;SDS011;10528;52.124;5.196;2022-09-29T11:06:40;6.32;;;4.22;;
20734;SDS011;10528;52.124;5.196;2022-09-29T11:17:01;6.80;;;4.55;;
20734;SDS011;10528;52.124;5.196;2022-09-29T11:19:53;5.47;;;4.30;;
20734;SDS011;10528;52.124;5.196;2022-09-29T11:22:27;7.00;;;4.38;;
20734;SDS011;10528;52.124;5.196;2022-09-29T11:37:24;3.10;;;2.05;;
20734;SDS011;10528;52.124;5.196;2022-09-29T11:40:34;4.10;;;3.15;;
20734;SDS011;10528;52.124;5.196;2022-09-29T11:54:52;6.05;;;2.28;;
20734;SDS011;10528;52.124;5.196;2022-09-29T11:57:52;3.08;;;1.52;;
20734;SDS011;10528;52.124;5.196;2022-09-29T12:04:06;2.78;;;1.85;;
20734;SDS011;10528;52.124;5.196;2022-09-29T12:06:59;2.47;;;1.83;;
20734;SDS011;10528;52.124;5.196;2022-09-29T12:13:11;3.20;;;1.90;;
20734;SDS011;10528;52.124;5.196;2022-09-29T12:15:56;4.32;;;1.75;;
20734;SDS011;10528;52.124;5.196;2022-09-29T12:18:32;4.47;;;1.88;;
20734;SDS011;10528;52.124;5.196;2022-09-29T12:21:27;3.33;;;1.70;;
20734;SDS011;10528;52.124;5.196;2022-09-29T12:24:00;3.28;;;2.10;;
20734;SDS011;10528;52.124;5.196;2022-09-29T12:26:35;3.45;;;2.28;;
20734;SDS011;10528;52.124;5.196;2022-09-29T12:29:06;4.32;;;2.55;;
20734;SDS011;10528;52.124;5.196;2022-09-29T12:31:58;3.78;;;2.47;;
20734;SDS011;10528;52.124;5.196;2022-09-29T12:37:42;2.80;;;2.10;;
20734;SDS011;10528;52.124;5.196;2022-09-29T12:43:00;2.88;;;1.92;;
20734;SDS011;10528;52.124;5.196;2022-09-29T12:48:50;3.05;;;1.77;;
20734;SDS011;10528;52.124;5.196;2022-09-29T12:51:29;3.35;;;1.60;;
20734;SDS011;10528;52.124;5.196;2022-09-29T12:59:36;2.45;;;1.60;;
20734;SDS011;10528;52.124;5.196;2022-09-29T13:15:39;2.47;;;1.30;;
20734;SDS011;10528;52.124;5.196;2022-09-29T13:20:52;3.38;;;1.27;;
20734;SDS011;10528;52.124;5.196;2022-09-29T13:23:35;3.05;;;1.23;;
20734;SDS011;10528;52.124;5.196;2022-09-29T13:29:27;1.65;;;1.08;;
20734;SDS011;10528;52.124;5.196;2022-09-29T13:31:57;2.45;;;1.00;;
20734;SDS011;10528;52.124;5.196;2022-09-29T13:34:31;1.55;;;1.05;;
20734;SDS011;10528;52.124;5.196;2022-09-29T13:37:21;1.92;;;0.88;;
20734;SDS011;10528;52.124;5.196;2022-09-29T13:47:50;1.02;;;0.75;;
20734;SDS011;10528;52.124;5.196;2022-09-29T13:55:52;1.38;;;0.80;;
20734;SDS011;10528;52.124;5.196;2022-09-29T13:58:32;1.20;;;0.70;;
20734;SDS011;10528;52.124;5.196;2022-09-29T14:01:20;1.95;;;0.80;;
20734;SDS011;10528;52.124;5.196;2022-09-29T14:04:22;1.83;;;1.10;;
20734;SDS011;10528;52.124;5.196;2022-09-29T14:07:10;1.73;;;0.80;;
20734;SDS011;10528;52.124;5.196;2022-09-29T14:10:02;1.65;;;0.90;;
20734;SDS011;10528;52.124;5.196;2022-09-29T14:16:54;2.47;;;1.58;;
20734;SDS011;10528;52.124;5.196;2022-09-29T14:19:21;2.75;;;1.15;;
20734;SDS011;10528;52.124;5.196;2022-09-29T14:21:57;2.53;;;1.20;;
20734;SDS011;10528;52.124;5.196;2022-09-29T14:29:51;2.38;;;1.20;;
20734;SDS011;10528;52.124;5.196;2022-09-29T14:32:56;2.53;;;1.27;;
20734;SDS011;10528;52.124;5.196;2022-09-29T14:38:13;2.13;;;1.15;;
20734;SDS011;10528;52.124;5.196;2022-09-29T14:52:45;1.05;;;0.60;;
20734;SDS011;10528;52.124;5.196;2022-09-29T15:01:36;1.42;;;0.80;;
20734;SDS011;10528;52.124;5.196;2022-09-29T15:04:22;2.03;;;0.90;;
20734;SDS011;10528;52.124;5.196;2022-09-29T15:06:50;2.10;;;1.00;;
20734;SDS011;10528;52.124;5.196;2022-09-29T15:09:19;2.42;;;1.35;;
20734;SDS011;10528;52.124;5.196;2022-09-29T15:14:23;3.03;;;1.92;;
20734;SDS011;10528;52.124;5.196;2022-09-29T15:23:38;3.88;;;1.63;;
20734;SDS011;10528;52.124;5.196;2022-09-29T15:26:29;2.83;;;1.60;;
20734;SDS011;10528;52.124;5.196;2022-09-29T15:28:59;2.67;;;1.80;;
20734;SDS011;10528;52.124;5.196;2022-09-29T15:31:31;2.90;;;1.48;;
20734;SDS011;10528;52.124;5.196;2022-09-29T15:33:59;3.38;;;1.25;;
20734;SDS011;10528;52.124;5.196;2022-09-29T15:36:34;2.92;;;1.30;;
20734;SDS011;10528;52.124;5.196;2022-09-29T15:39:51;2.33;;;1.55;;
20734;SDS011;10528;52.124;5.196;2022-09-29T15:42:16;3.70;;;1.20;;
20734;SDS011;10528;52.124;5.196;2022-09-29T15:44:53;2.10;;;1.10;;
20734;SDS011;10528;52.124;5.196;2022-09-29T15:47:33;1.58;;;0.90;;
20734;SDS011;10528;52.124;5.196;2022-09-29T15:50:05;1.83;;;1.08;;
20734;SDS011;10528;52.124;5.196;2022-09-29T15:52:47;3.83;;;1.40;;
20734;SDS011;10528;52.124;5.196;2022-09-29T15:55:16;1.63;;;1.10;;
20734;SDS011;10528;52.124;5.196;2022-09-29T15:57:50;1.92;;;1.02;;
20734;SDS011;10528;52.124;5.196;2022-09-29T16:06:35;1.60;;;0.88;;
20734;SDS011;10528;52.124;5.196;2022-09-29T16:08:57;1.77;;;1.02;;
20734;SDS011;10528;52.124;5.196;2022-09-29T16:11:30;1.50;;;1.00;;
20734;SDS011;10528;52.124;5.196;2022-09-29T16:14:11;1.88;;;1.00;;
20734;SDS011;10528;52.124;5.196;2022-09-29T16:16:53;2.33;;;1.30;;
20734;SDS011;10528;52.124;5.196;2022-09-29T16:22:02;2.75;;;1.10;;
20734;SDS011;10528;52.124;5.196;2022-09-29T16:24:35;1.75;;;1.10;;
20734;SDS011;10528;52.124;5.196;2022-09-29T16:27:37;2.13;;;1.02;;
20734;SDS011;10528;52.124;5.196;2022-09-29T16:30:22;1.60;;;1.10;;
20734;SDS011;10528;52.124;5.196;2022-09-29T16:32:55;2.50;;;1.10;;
20734;SDS011;10528;52.124;5.196;2022-09-29T16:49:21;2.28;;;1.33;;
20734;SDS011;10528;52.124;5.196;2022-09-29T16:51:55;3.47;;;1.95;;
20734;SDS011;10528;52.124;5.196;2022-09-29T16:54:31;6.25;;;2.47;;
20734;SDS011;10528;52.124;5.196;2022-09-29T16:59:58;3.80;;;1.70;;
20734;SDS011;10528;52.124;5.196;2022-09-29T17:02:32;3.20;;;1.40;;
20734;SDS011;10528;52.124;5.196;2022-09-29T17:04:59;3.80;;;1.80;;
20734;SDS011;10528;52.124;5.196;2022-09-29T17:07:30;2.72;;;1.58;;
20734;SDS011;10528;52.124;5.196;2022-09-29T17:09:58;3.38;;;1.70;;
20734;SDS011;10528;52.124;5.196;2022-09-29T17:12:27;4.65;;;1.52;;
20734;SDS011;10528;52.124;5.196;2022-09-29T17:14:55;2.20;;;1.48;;
20734;SDS011;10528;52.124;5.196;2022-09-29T17:17:23;4.07;;;1.70;;
20734;SDS011;10528;52.124;5.196;2022-09-29T17:19:53;6.28;;;1.40;;
20734;SDS011;10528;52.124;5.196;2022-09-29T17:25:02;2.45;;;1.27;;
20734;SDS011;10528;52.124;5.196;2022-09-29T17:27:29;1.90;;;1.30;;
20734;SDS011;10528;52.124;5.196;2022-09-29T17:30:16;2.25;;;1.30;;
20734;SDS011;10528;52.124;5.196;2022-09-29T17:32:48;2.33;;;1.30;;
20734;SDS011;10528;52.124;5.196;2022-09-29T17:35:20;4.50;;;1.80;;
20734;SDS011;10528;52.124;5.196;2022-09-29T17:37:55;2.92;;;1.60;;
20734;SDS011;10528;52.124;5.196;2022-09-29T17:40:27;4.47;;;2.55;;
20734;SDS011;10528;52.124;5.196;2022-09-29T17:43:14;5.80;;;2.88;;
20734;SDS011;10528;52.124;5.196;2022-09-29T17:45:42;3.65;;;2.63;;
20734;SDS011;10528;52.124;5.196;2022-09-29T17:48:11;5.47;;;3.03;;
20734;SDS011;10528;52.124;5.196;2022-09-29T17:50:39;5.05;;;3.00;;
20734;SDS011;10528;52.124;5.196;2022-09-29T17:53:15;4.78;;;3.00;;
20734;SDS011;10528;52.124;5.196;2022-09-29T17:55:44;5.57;;;3.17;;
20734;SDS011;10528;52.124;5.196;2022-09-29T17:58:17;6.72;;;3.45;;
20734;SDS011;10528;52.124;5.196;2022-09-29T18:00:48;6.75;;;3.67;;
20734;SDS011;10528;52.124;5.196;2022-09-29T18:03:19;7.78;;;3.97;;
20734;SDS011;10528;52.124;5.196;2022-09-29T18:05:48;7.78;;;4.07;;
20734;SDS011;10528;52.124;5.196;2022-09-29T18:08:22;9.23;;;5.40;;
20734;SDS011;10528;52.124;5.196;2022-09-29T18:10:55;11.38;;;6.00;;
20734;SDS011;10528;52.124;5.196;2022-09-29T18:13:27;8.45;;;5.47;;
20734;SDS011;10528;52.124;5.196;2022-09-29T18:15:57;9.25;;;6.00;;
20734;SDS011;10528;52.124;5.196;2022-09-29T18:18:26;9.50;;;6.32;;
20734;SDS011;10528;52.124;5.196;2022-09-29T18:20:53;10.07;;;6.55;;
20734;SDS011;10528;52.124;5.196;2022-09-29T18:23:20;11.10;;;6.60;;
20734;SDS011;10528;52.124;5.196;2022-09-29T18:25:49;12.07;;;7.40;;
20734;SDS011;10528;52.124;5.196;2022-09-29T18:28:18;9.82;;;7.55;;
20734;SDS011;10528;52.124;5.196;2022-09-29T18:30:46;9.85;;;6.40;;
20734;SDS011;10528;52.124;5.196;2022-09-29T18:33:18;12.23;;;6.93;;
20734;SDS011;10528;52.124;5.196;2022-09-29T18:35:50;12.00;;;8.13;;
20734;SDS011;10528;52.124;5.196;2022-09-29T18:38:18;10.73;;;7.25;;
20734;SDS011;10528;52.124;5.196;2022-09-29T18:40:46;13.07;;;7.60;;
20734;SDS011;10528;52.124;5.196;2022-09-29T18:43:16;10.98;;;7.68;;
20734;SDS011;10528;52.124;5.196;2022-09-29T18:45:43;12.38;;;7.35;;
20734;SDS011;10528;52.124;5.196;2022-09-29T18:48:11;11.20;;;7.55;;
20734;SDS011;10528;52.124;5.196;2022-09-29T18:50:44;13.25;;;8.82;;
20734;SDS011;10528;52.124;5.196;2022-09-29T18:53:17;13.95;;;9.25;;
20734;SDS011;10528;52.124;5.196;2022-09-29T18:55:46;15.90;;;11.38;;
20734;SDS011;10528;52.124;5.196;2022-09-29T18:58:15;15.23;;;10.50;;
20734;SDS011;10528;52.124;5.196;2022-09-29T19:00:47;14.30;;;10.13;;
20734;SDS011;10528;52.124;5.196;2022-09-29T19:03:24;13.88;;;10.23;;
20734;SDS011;10528;52.124;5.196;2022-09-29T19:05:53;15.55;;;10.32;;
20734;SDS011;10528;52.124;5.196;2022-09-29T19:08:21;13.63;;;10.05;;
20734;SDS011;10528;52.124;5.196;2022-09-29T19:10:49;13.55;;;10.55;;